createdAt,value
2023-01-29T00:02:32.592Z,2.75
2023-01-29T00:07:33.909Z,2.79
2023-01-29T00:12:35.879Z,2.76
2023-01-29T00:17:37.165Z,2.71
2023-01-29T00:22:38.467Z,2.35
2023-01-29T00:27:39.869Z,2.58
2023-01-29T00:32:41.498Z,2.61
2023-01-29T00:37:43.110Z,2.59
2023-01-29T00:43:04.115Z,2.48
2023-01-29T00:48:06.542Z,2.51
2023-01-29T00:53:07.894Z,2.38
2023-01-29T00:58:09.898Z,2.56
2023-01-29T01:03:11.208Z,2.59
2023-01-29T01:08:31.776Z,2.54
2023-01-29T01:13:34.296Z,2.50
2023-01-29T01:18:36.529Z,2.33
2023-01-29T01:23:38.003Z,2.53
2023-01-29T01:28:39.536Z,2.68
2023-01-29T01:33:41.394Z,2.54
2023-01-29T01:38:46.039Z,2.55
2023-01-29T01:43:48.751Z,2.68
2023-01-29T01:49:01.562Z,2.57
2023-01-29T01:54:35.044Z,2.49
2023-01-29T01:59:40.258Z,2.19
2023-01-29T02:05:06.441Z,2.21
2023-01-29T02:10:16.065Z,2.24
2023-01-29T02:15:17.624Z,2.34
2023-01-29T02:20:24.733Z,2.22
2023-01-29T02:25:44.464Z,2.17
2023-01-29T02:30:55.877Z,2.24
2023-01-29T02:36:02.525Z,2.18
2023-01-29T02:41:10.771Z,2.14
2023-01-29T02:46:15.977Z,2.15
2023-01-29T02:51:24.634Z,2.10
2023-01-29T02:56:41.509Z,2.07
2023-01-29T03:01:50.026Z,2.14
2023-01-29T03:06:57.121Z,2.12
2023-01-29T03:12:19.826Z,2.02
2023-01-29T03:17:26.102Z,2.22
2023-01-29T03:22:27.735Z,2.14
2023-01-29T03:28:10.530Z,2.08
2023-01-29T03:33:13.637Z,2.10
2023-01-29T03:38:16.392Z,2.12
2023-01-29T03:43:57.825Z,2.11
2023-01-29T03:49:09.815Z,1.97
2023-01-29T03:54:16.850Z,2.00
2023-01-29T03:59:53.529Z,1.95
2023-01-29T04:04:59.623Z,2.02
2023-01-29T04:10:07.368Z,2.00
2023-01-29T04:15:15.361Z,2.17
2023-01-29T04:20:17.561Z,1.94
2023-01-29T04:25:26.734Z,1.74
2023-01-29T04:30:31.144Z,1.85
2023-01-29T04:35:41.246Z,1.83
2023-01-29T04:41:00.972Z,1.81
2023-01-29T04:46:25.321Z,1.72
2023-01-29T04:51:51.355Z,1.64
2023-01-29T04:57:23.173Z,1.61
2023-01-29T05:02:26.693Z,1.56
2023-01-29T05:07:30.809Z,1.47
2023-01-29T05:12:35.665Z,1.62
2023-01-29T05:17:37.165Z,1.62
2023-01-29T05:22:42.615Z,1.47
2023-01-29T05:28:02.870Z,1.44
2023-01-29T05:33:10.409Z,1.71
2023-01-29T05:38:11.913Z,1.65
2023-01-29T05:43:18.495Z,1.47
2023-01-29T05:48:19.926Z,1.37
2023-01-29T05:53:21.273Z,1.39
2023-01-29T05:58:23.413Z,1.48
2023-01-29T06:03:25.101Z,1.45
2023-01-29T06:08:26.398Z,1.62
2023-01-29T06:13:27.799Z,1.62
2023-01-29T06:18:29.211Z,1.54
2023-01-29T06:23:31.341Z,1.54
2023-01-29T06:28:32.768Z,1.46
2023-01-29T06:33:34.936Z,1.73
2023-01-29T06:38:36.348Z,1.80
2023-01-29T06:43:38.828Z,1.82
2023-01-29T06:48:40.337Z,1.82
2023-01-29T06:53:43.387Z,1.96
2023-01-29T06:58:47.148Z,1.73
2023-01-29T07:03:54.542Z,1.66
2023-01-29T07:08:56.504Z,1.77
2023-01-29T07:13:58.250Z,1.89
2023-01-29T07:18:59.649Z,1.87
2023-01-29T07:24:01.229Z,1.59
2023-01-29T07:29:04.880Z,1.76
2023-01-29T07:34:06.335Z,1.76
2023-01-29T07:39:07.653Z,1.33
2023-01-29T07:44:09.220Z,1.35
2023-01-29T07:49:10.632Z,1.57
2023-01-29T07:54:11.998Z,1.83
2023-01-29T07:59:13.476Z,1.87
2023-01-29T08:04:14.985Z,1.99
2023-01-29T08:09:16.432Z,2.03
2023-01-29T08:14:17.909Z,1.91
2023-01-29T08:19:19.367Z,1.97
2023-01-29T08:24:21.138Z,1.81
2023-01-29T08:29:22.512Z,2.20
2023-01-29T08:34:23.900Z,2.40
2023-01-29T08:39:25.498Z,2.46
2023-01-29T08:44:26.873Z,2.60
2023-01-29T08:49:28.235Z,2.39
2023-01-29T08:54:29.987Z,1.93
2023-01-29T08:59:31.436Z,1.66
2023-01-29T09:04:32.854Z,1.68
2023-01-29T09:09:34.407Z,1.64
2023-01-29T09:14:35.915Z,1.27
2023-01-29T09:19:37.438Z,1.42
2023-01-29T09:24:39.094Z,1.55
2023-01-29T09:29:40.403Z,2.10
2023-01-29T09:34:41.857Z,2.25
2023-01-29T09:39:43.986Z,2.18
2023-01-29T09:45:04.989Z,1.82
2023-01-29T09:50:20.172Z,1.96
2023-01-29T09:55:24.636Z,2.22
2023-01-29T10:00:44.411Z,2.31
2023-01-29T10:05:59.823Z,2.52
2023-01-29T10:11:13.154Z,2.67
2023-01-29T10:16:39.549Z,2.91
2023-01-29T10:22:23.248Z,2.76
2023-01-29T10:27:31.208Z,2.74
2023-01-29T10:32:36.092Z,2.83
2023-01-29T10:37:42.506Z,2.90
2023-01-29T10:42:50.865Z,3.33
2023-01-29T10:48:04.315Z,3.51
2023-01-29T10:53:53.970Z,4.00
2023-01-29T10:59:01.479Z,7.77
2023-01-29T11:04:04.799Z,6.16
2023-01-29T11:09:12.430Z,7.09
2023-01-29T11:14:23.020Z,8.12
2023-01-29T11:19:39.659Z,8.45
2023-01-29T11:24:41.189Z,9.43
2023-01-29T11:29:51.094Z,11.30
2023-01-29T11:35:16.761Z,11.37
2023-01-29T11:40:18.305Z,10.77
2023-01-29T11:45:19.793Z,14.28
2023-01-29T11:50:25.418Z,15.33
2023-01-29T11:55:40.933Z,13.70
2023-01-29T12:00:52.619Z,13.77
2023-01-29T12:05:58.596Z,15.07
2023-01-29T12:11:08.795Z,15.34
2023-01-29T12:16:21.590Z,15.24
2023-01-29T12:21:38.975Z,10.94
2023-01-29T12:26:49.465Z,9.34
2023-01-29T12:32:03.655Z,9.67
2023-01-29T12:37:17.982Z,9.96
2023-01-29T12:42:25.934Z,8.79
2023-01-29T12:47:33.526Z,7.66
2023-01-29T12:52:34.861Z,8.06
2023-01-29T12:57:42.107Z,8.90
2023-01-29T13:03:03.983Z,8.79
2023-01-29T13:08:10.509Z,8.63
2023-01-29T13:13:33.106Z,7.91
2023-01-29T13:18:46.385Z,7.70
2023-01-29T13:23:51.618Z,7.79
2023-01-29T13:28:53.282Z,9.84
2023-01-29T13:34:11.821Z,12.94
2023-01-29T13:39:28.747Z,15.01
2023-01-29T13:44:37.772Z,14.34
2023-01-29T13:49:43.084Z,14.03
2023-01-29T13:55:07.300Z,14.91
2023-01-29T14:00:34.364Z,16.34
2023-01-29T14:05:53.922Z,15.45
2023-01-29T14:11:17.521Z,13.67
2023-01-29T14:16:18.949Z,11.06
2023-01-29T14:21:29.705Z,9.87
2023-01-29T14:26:34.371Z,10.93
2023-01-29T14:31:35.833Z,9.15
2023-01-29T14:36:43.307Z,8.94
2023-01-29T14:41:44.774Z,11.79
2023-01-29T14:46:46.413Z,11.31
2023-01-29T14:51:48.516Z,13.31
2023-01-29T14:56:58.605Z,14.99
2023-01-29T15:02:10.583Z,14.70
2023-01-29T15:07:11.869Z,15.49
2023-01-29T15:12:33.650Z,14.75
2023-01-29T15:17:54.703Z,14.51
2023-01-29T15:22:56.240Z,12.68
2023-01-29T15:27:58.333Z,9.33
2023-01-29T15:33:02.617Z,6.96
2023-01-29T15:38:05.608Z,5.65
2023-01-29T15:43:38.210Z,4.91
2023-01-29T15:48:43.483Z,4.28
2023-01-29T15:53:50.150Z,4.00
2023-01-29T15:58:52.439Z,3.68
2023-01-29T16:03:54.042Z,3.53
2023-01-29T16:08:55.813Z,2.76
2023-01-29T16:13:59.776Z,2.67
2023-01-29T16:19:01.661Z,2.65
2023-01-29T16:24:13.867Z,2.59
2023-01-29T16:29:19.029Z,2.51
2023-01-29T16:34:32.382Z,2.59
2023-01-29T16:39:38.239Z,2.59
2023-01-29T16:44:40.915Z,2.56
2023-01-29T16:49:44.577Z,2.44
2023-01-29T16:54:45.923Z,2.43
2023-01-29T16:59:47.689Z,2.44
2023-01-29T17:04:51.128Z,2.47
2023-01-29T17:10:00.909Z,2.20
2023-01-29T17:15:05.960Z,2.40
2023-01-29T17:20:14.361Z,2.34
2023-01-29T17:25:17.125Z,2.28
2023-01-29T17:30:23.777Z,2.10
2023-01-29T17:35:25.138Z,2.06
2023-01-29T17:40:46.365Z,2.14
2023-01-29T17:45:47.911Z,2.03
2023-01-29T17:50:53.401Z,2.03
2023-01-29T17:55:55.097Z,1.98
2023-01-29T18:00:56.778Z,1.77
2023-01-29T18:05:58.159Z,1.74
2023-01-29T18:11:00.770Z,1.90
2023-01-29T18:16:02.739Z,1.83
2023-01-29T18:21:04.463Z,1.79
2023-01-29T18:26:07.655Z,1.67
2023-01-29T18:31:10.150Z,1.55
2023-01-29T18:36:12.334Z,1.49
2023-01-29T18:41:13.927Z,1.58
2023-01-29T18:46:15.349Z,1.61
2023-01-29T18:51:16.943Z,1.54
2023-01-29T18:56:19.074Z,1.52
2023-01-29T19:01:20.878Z,1.52
2023-01-29T19:06:22.293Z,1.48
2023-01-29T19:11:23.797Z,1.26
2023-01-29T19:16:25.699Z,1.35
2023-01-29T19:21:27.141Z,1.27
2023-01-29T19:26:28.691Z,1.21
2023-01-29T19:31:32.013Z,1.05
2023-01-29T19:36:33.440Z,1.08
2023-01-29T19:41:35.012Z,0.93
2023-01-29T19:46:36.335Z,0.88
2023-01-29T19:51:38.377Z,0.97
2023-01-29T19:56:39.893Z,1.05
2023-01-29T20:01:41.731Z,1.08
2023-01-29T20:06:43.143Z,1.11
2023-01-29T20:11:44.540Z,1.19
2023-01-29T20:16:45.929Z,1.00
2023-01-29T20:21:48.864Z,0.83
2023-01-29T20:26:50.646Z,0.89
2023-01-29T20:31:52.078Z,1.16
2023-01-29T20:36:53.946Z,1.23
2023-01-29T20:41:57.334Z,1.37
2023-01-29T20:47:01.709Z,1.42
2023-01-29T20:52:03.451Z,1.56
2023-01-29T20:57:04.835Z,1.68
2023-01-29T21:02:06.693Z,1.73
2023-01-29T21:07:08.034Z,1.63
2023-01-29T21:12:09.807Z,1.63
2023-01-29T21:17:11.227Z,1.44
2023-01-29T21:22:12.676Z,1.38
2023-01-29T21:27:13.996Z,1.53
2023-01-29T21:32:16.325Z,1.30
2023-01-29T21:37:19.142Z,1.22
2023-01-29T21:42:39.250Z,1.02
2023-01-29T21:47:40.615Z,1.04
2023-01-29T21:52:42.115Z,1.02
2023-01-29T21:57:44.029Z,0.96
2023-01-29T22:02:45.830Z,0.96
2023-01-29T22:07:49.540Z,0.94
2023-01-29T22:12:51.157Z,0.86
2023-01-29T22:17:52.519Z,1.04
2023-01-29T22:22:54.035Z,1.00
2023-01-29T22:27:55.933Z,0.95
2023-01-29T22:32:57.301Z,1.05
2023-01-29T22:37:58.631Z,1.03
2023-01-29T22:43:00.077Z,0.95
2023-01-29T22:48:01.461Z,0.92
2023-01-29T22:53:02.992Z,1.11
2023-01-29T22:58:04.332Z,1.12
2023-01-29T23:03:05.658Z,1.05
2023-01-29T23:08:06.992Z,1.12
2023-01-29T23:13:08.304Z,1.25
2023-01-29T23:18:10.009Z,1.24
2023-01-29T23:23:11.321Z,1.20
2023-01-29T23:28:13.000Z,1.31
2023-01-29T23:33:14.379Z,1.20
2023-01-29T23:38:15.789Z,1.17
2023-01-29T23:43:17.173Z,1.09
2023-01-29T23:48:18.560Z,1.37
2023-01-29T23:53:20.031Z,1.27
2023-01-29T23:58:21.578Z,1.33
